createdAt,value
2018-12-16T00:02:08.921Z,225.83
2018-12-16T00:04:39.944Z,227.57
2018-12-16T00:07:09.890Z,264.50
2018-12-16T00:09:40.607Z,288.03
2018-12-16T00:12:10.860Z,340.33
2018-12-16T00:14:42.063Z,378.20
2018-12-16T00:17:12.256Z,369.43
2018-12-16T00:19:42.724Z,330.67
2018-12-16T00:22:13.348Z,356.50
2018-12-16T00:24:44.464Z,301.53
2018-12-16T00:27:15.537Z,339.63
2018-12-16T00:29:45.828Z,312.90
2018-12-16T00:32:16.174Z,246.97
2018-12-16T00:34:47.428Z,281.80
2018-12-16T00:37:17.627Z,302.77
2018-12-16T00:39:48.386Z,264.57
2018-12-16T00:42:18.907Z,291.07
2018-12-16T00:44:49.547Z,255.63
2018-12-16T00:47:20.170Z,255.03
2018-12-16T00:49:50.390Z,226.07
2018-12-16T00:52:20.675Z,228.13
2018-12-16T00:54:52.648Z,218.13
2018-12-16T00:57:23.770Z,191.67
2018-12-16T00:59:53.707Z,189.50
2018-12-16T01:02:29.154Z,197.97
2018-12-16T01:05:00.195Z,198.87
2018-12-16T01:07:30.750Z,207.87
2018-12-16T01:10:01.079Z,215.07
2018-12-16T01:12:31.585Z,191.63
2018-12-16T01:15:02.892Z,195.40
2018-12-16T01:17:33.256Z,157.63
2018-12-16T01:20:03.310Z,199.37
2018-12-16T01:22:33.878Z,189.10
2018-12-16T01:25:05.821Z,188.60
2018-12-16T01:27:36.309Z,196.27
2018-12-16T01:30:06.960Z,180.87
2018-12-16T01:32:36.588Z,196.30
2018-12-16T01:35:08.102Z,184.77
2018-12-16T01:37:38.955Z,194.73
2018-12-16T01:40:09.418Z,193.20
2018-12-16T01:42:39.704Z,181.07
2018-12-16T01:45:10.939Z,187.93
2018-12-16T01:47:41.561Z,199.17
2018-12-16T01:50:12.310Z,191.47
2018-12-16T01:52:42.907Z,207.60
2018-12-16T01:55:13.784Z,215.33
2018-12-16T01:57:44.191Z,234.57
2018-12-16T02:00:14.994Z,221.63
2018-12-16T02:02:45.503Z,224.93
2018-12-16T02:05:16.239Z,219.07
2018-12-16T02:07:46.925Z,219.37
2018-12-16T02:10:17.327Z,234.13
2018-12-16T02:12:47.927Z,257.97
2018-12-16T02:15:19.383Z,221.80
2018-12-16T02:17:50.304Z,240.17
2018-12-16T02:20:21.089Z,235.93
2018-12-16T02:22:56.755Z,237.97
2018-12-16T02:25:24.098Z,241.03
2018-12-16T02:27:54.521Z,238.50
2018-12-16T02:30:29.182Z,218.07
2018-12-16T02:32:59.990Z,215.90
2018-12-16T02:35:30.922Z,240.53
2018-12-16T02:38:01.446Z,215.40
2018-12-16T02:40:31.770Z,194.03
2018-12-16T02:43:02.107Z,210.87
2018-12-16T02:45:33.260Z,242.60
2018-12-16T02:48:04.119Z,210.30
2018-12-16T02:50:34.661Z,207.97
2018-12-16T02:53:05.194Z,167.50
2018-12-16T02:55:36.525Z,160.43
2018-12-16T02:58:07.302Z,127.87
2018-12-16T03:00:37.976Z,131.83
2018-12-16T03:03:08.681Z,127.67
2018-12-16T03:05:39.626Z,112.07
2018-12-16T03:08:09.823Z,124.77
2018-12-16T03:10:40.372Z,87.67
2018-12-16T03:13:10.821Z,107.63
2018-12-16T03:15:41.436Z,112.63
2018-12-16T03:18:12.104Z,98.70
2018-12-16T03:20:43.001Z,110.93
2018-12-16T03:23:13.490Z,87.50
2018-12-16T03:25:44.323Z,98.70
2018-12-16T03:28:14.539Z,123.40
2018-12-16T03:30:45.103Z,107.27
2018-12-16T03:33:15.634Z,106.67
2018-12-16T03:35:45.822Z,113.30
2018-12-16T03:38:16.277Z,107.70
2018-12-16T03:40:46.303Z,111.60
2018-12-16T03:43:16.822Z,100.50
2018-12-16T03:45:47.405Z,126.20
2018-12-16T03:48:17.879Z,108.70
2018-12-16T03:50:48.400Z,119.50
2018-12-16T03:53:19.924Z,107.20
2018-12-16T03:55:51.308Z,116.37
2018-12-16T03:58:21.749Z,129.80
2018-12-16T04:00:52.270Z,120.53
2018-12-16T04:03:22.627Z,137.07
2018-12-16T04:05:54.425Z,127.70
2018-12-16T04:08:24.689Z,125.97
2018-12-16T04:10:55.271Z,115.57
2018-12-16T04:13:25.626Z,116.00
2018-12-16T04:15:57.400Z,114.17
2018-12-16T04:18:28.132Z,114.63
2018-12-16T04:20:58.402Z,123.63
2018-12-16T04:23:28.776Z,125.83
2018-12-16T04:26:00.039Z,134.77
2018-12-16T04:28:30.825Z,145.10
2018-12-16T04:31:01.177Z,124.50
2018-12-16T04:33:31.807Z,134.30
2018-12-16T04:36:02.774Z,164.33
2018-12-16T04:38:33.268Z,117.53
2018-12-16T04:41:03.690Z,166.03
2018-12-16T04:43:34.080Z,179.67
2018-12-16T04:46:05.367Z,154.30
2018-12-16T04:48:35.958Z,161.40
2018-12-16T04:51:07.050Z,183.17
2018-12-16T04:53:38.195Z,172.33
2018-12-16T04:56:09.207Z,162.27
2018-12-16T04:58:39.643Z,154.73
2018-12-16T05:01:10.183Z,147.47
2018-12-16T05:03:40.596Z,146.00
2018-12-16T05:06:11.728Z,156.03
2018-12-16T05:08:42.358Z,162.50
2018-12-16T05:11:12.730Z,149.60
2018-12-16T05:13:43.104Z,142.63
2018-12-16T05:16:14.489Z,165.57
2018-12-16T05:18:45.107Z,161.73
2018-12-16T05:21:15.763Z,155.17
2018-12-16T05:23:46.368Z,154.60
2018-12-16T05:26:17.750Z,206.03
2018-12-16T05:28:47.875Z,196.70
2018-12-16T05:31:18.473Z,253.67
2018-12-16T05:33:48.866Z,167.80
2018-12-16T05:36:19.606Z,207.67
2018-12-16T05:38:50.047Z,182.73
2018-12-16T05:41:20.552Z,172.67
2018-12-16T05:43:51.005Z,214.03
2018-12-16T05:46:21.527Z,200.13
2018-12-16T05:48:51.948Z,198.17
2018-12-16T05:51:22.481Z,210.40
2018-12-16T05:53:53.037Z,210.77
2018-12-16T05:56:23.977Z,162.30
2018-12-16T05:58:54.496Z,182.87
2018-12-16T06:01:24.956Z,178.40
2018-12-16T06:03:55.448Z,183.47
2018-12-16T06:06:25.968Z,174.83
2018-12-16T06:08:56.395Z,187.50
2018-12-16T06:11:26.676Z,189.97
2018-12-16T06:13:57.249Z,203.70
2018-12-16T06:16:28.541Z,183.60
2018-12-16T06:18:59.015Z,169.10
2018-12-16T06:21:29.352Z,180.57
2018-12-16T06:23:59.872Z,192.93
2018-12-16T06:26:30.377Z,196.17
2018-12-16T06:29:00.823Z,216.10
2018-12-16T06:31:31.272Z,205.73
2018-12-16T06:34:01.722Z,184.03
2018-12-16T06:36:33.073Z,177.83
2018-12-16T06:39:03.391Z,193.93
2018-12-16T06:41:33.783Z,211.73
2018-12-16T06:44:04.088Z,260.37
2018-12-16T06:46:34.767Z,228.33
2018-12-16T06:49:05.365Z,247.20
2018-12-16T06:51:35.984Z,270.20
2018-12-16T06:54:06.101Z,237.13
2018-12-16T06:56:37.569Z,236.83
2018-12-16T06:59:08.297Z,261.90
2018-12-16T07:01:38.952Z,252.63
2018-12-16T07:04:09.250Z,235.00
2018-12-16T07:06:40.220Z,351.77
2018-12-16T07:09:10.467Z,344.10
2018-12-16T07:11:40.883Z,274.80
2018-12-16T07:14:11.436Z,305.03
2018-12-16T07:16:42.705Z,276.17
2018-12-16T07:19:13.132Z,246.37
2018-12-16T07:21:44.974Z,278.20
2018-12-16T07:24:15.593Z,283.20
2018-12-16T07:26:46.554Z,315.97
2018-12-16T07:29:17.088Z,314.33
2018-12-16T07:31:47.432Z,276.03
2018-12-16T07:34:17.104Z,276.07
2018-12-16T07:36:47.473Z,274.73
2018-12-16T07:39:17.403Z,288.17
2018-12-16T07:41:47.082Z,373.00
2018-12-16T07:44:16.887Z,334.77
2018-12-16T07:46:47.033Z,340.83
2018-12-16T07:49:17.738Z,337.70
2018-12-16T07:51:48.474Z,312.10
2018-12-16T07:54:18.908Z,366.20
2018-12-16T07:56:49.373Z,345.27
2018-12-16T07:59:19.646Z,373.00
2018-12-16T08:01:49.274Z,391.50
2018-12-16T08:04:18.937Z,416.70
2018-12-16T08:06:49.619Z,412.70
2018-12-16T08:09:20.013Z,423.27
2018-12-16T08:11:49.779Z,415.73
2018-12-16T08:14:19.428Z,417.20
2018-12-16T08:16:49.562Z,500.43
2018-12-16T08:19:19.679Z,465.30
2018-12-16T08:21:50.095Z,475.47
2018-12-16T08:24:23.143Z,447.87
2018-12-16T08:26:53.102Z,347.67
2018-12-16T08:29:23.945Z,335.43
2018-12-16T08:31:54.635Z,283.57
2018-12-16T08:34:25.193Z,289.97
2018-12-16T08:36:55.189Z,296.93
2018-12-16T08:39:25.672Z,283.03
2018-12-16T08:41:55.956Z,279.17
2018-12-16T08:44:26.404Z,262.83
2018-12-16T08:46:56.679Z,269.70
2018-12-16T08:50:28.887Z,281.53
2018-12-16T08:52:58.548Z,238.20
2018-12-16T08:55:28.963Z,278.70
2018-12-16T08:57:59.313Z,298.37
2018-12-16T09:00:30.036Z,236.17
2018-12-16T09:03:00.562Z,293.17
2018-12-16T09:05:30.816Z,315.53
2018-12-16T09:08:00.698Z,276.43
2018-12-16T09:10:34.054Z,239.90
2018-12-16T09:13:02.387Z,274.07
2018-12-16T09:15:32.797Z,278.57
2018-12-16T09:18:02.557Z,263.37
2018-12-16T09:20:32.866Z,247.83
2018-12-16T09:23:03.058Z,280.30
2018-12-16T09:25:33.920Z,355.23
2018-12-16T09:28:04.368Z,407.57
2018-12-16T09:30:34.642Z,441.20
2018-12-16T09:33:05.060Z,425.93
2018-12-16T09:35:36.425Z,437.17
2018-12-16T09:38:06.838Z,433.93
2018-12-16T09:40:37.223Z,457.60
2018-12-16T09:43:07.640Z,447.80
2018-12-16T09:45:38.379Z,414.87
2018-12-16T09:48:08.586Z,415.23
2018-12-16T09:50:38.864Z,404.23
2018-12-16T09:53:09.299Z,416.47
2018-12-16T09:55:40.705Z,457.03
2018-12-16T09:58:10.784Z,456.80
2018-12-16T10:00:41.105Z,407.30
2018-12-16T10:03:13.913Z,361.37
2018-12-16T10:06:15.985Z,368.03
2018-12-16T10:08:46.800Z,366.03
2018-12-16T10:11:17.168Z,347.73
2018-12-16T10:13:47.666Z,350.60
2018-12-16T10:16:18.412Z,311.10
2018-12-16T10:18:48.829Z,280.83
2018-12-16T10:21:18.667Z,271.43
2018-12-16T10:23:49.521Z,218.33
2018-12-16T10:26:20.214Z,275.97
2018-12-16T10:28:50.615Z,217.17
2018-12-16T10:31:21.012Z,190.63
2018-12-16T10:33:51.910Z,205.27
2018-12-16T10:36:21.541Z,219.80
2018-12-16T10:38:51.325Z,237.97
2018-12-16T10:41:21.129Z,232.53
2018-12-16T10:43:52.570Z,230.77
2018-12-16T10:46:23.088Z,293.20
2018-12-16T10:48:53.409Z,305.63
2018-12-16T10:51:23.856Z,314.47
2018-12-16T10:53:54.611Z,328.10
2018-12-16T10:56:25.084Z,325.97
2018-12-16T10:58:55.852Z,335.30
2018-12-16T11:01:28.966Z,325.70
2018-12-16T11:03:59.945Z,383.43
2018-12-16T11:06:30.412Z,441.27
2018-12-16T11:09:01.079Z,430.80
2018-12-16T11:11:31.653Z,446.23
2018-12-16T11:14:02.876Z,437.43
2018-12-16T11:16:33.254Z,420.67
2018-12-16T11:19:03.651Z,474.03
2018-12-16T11:21:33.852Z,431.13
2018-12-16T11:24:04.381Z,472.80
2018-12-16T11:26:34.927Z,442.17
2018-12-16T11:29:05.502Z,434.73
2018-12-16T11:31:35.865Z,428.67
2018-12-16T11:34:06.983Z,388.20
2018-12-16T11:36:37.437Z,415.73
2018-12-16T11:39:08.556Z,351.20
2018-12-16T11:41:39.648Z,338.20
2018-12-16T11:44:11.032Z,353.20
2018-12-16T11:46:41.323Z,317.90
2018-12-16T11:49:11.470Z,388.43
2018-12-16T11:51:41.701Z,394.13
2018-12-16T11:54:12.428Z,425.93
2018-12-16T11:56:42.837Z,391.67
2018-12-16T11:59:13.457Z,449.10
2018-12-16T12:01:43.232Z,462.90
2018-12-16T12:04:14.294Z,461.50
2018-12-16T12:06:45.069Z,465.57
2018-12-16T12:09:15.600Z,452.80
2018-12-16T12:11:46.117Z,426.80
2018-12-16T12:14:16.510Z,378.20
2018-12-16T12:16:47.152Z,236.23
2018-12-16T12:19:17.808Z,246.63
2018-12-16T12:21:48.091Z,366.03
2018-12-16T12:24:19.565Z,432.63
2018-12-16T12:26:49.707Z,452.57
2018-12-16T12:29:19.935Z,395.13
2018-12-16T12:31:50.084Z,417.50
2018-12-16T12:34:21.143Z,454.97
2018-12-16T12:36:51.899Z,486.73
2018-12-16T12:39:23.210Z,499.57
2018-12-16T12:41:53.318Z,485.30
2018-12-16T12:44:24.255Z,475.60
2018-12-16T12:46:54.734Z,490.60
2018-12-16T12:49:25.480Z,553.83
2018-12-16T12:51:55.814Z,550.47
2018-12-16T12:54:26.515Z,550.40
2018-12-16T12:56:56.890Z,566.90
2018-12-16T12:59:27.079Z,591.50
2018-12-16T13:01:57.273Z,549.93
2018-12-16T13:04:27.570Z,591.00
2018-12-16T13:06:57.952Z,662.63
2018-12-16T13:09:29.071Z,636.33
2018-12-16T13:11:59.601Z,609.30
2018-12-16T13:14:30.563Z,639.63
2018-12-16T13:17:00.933Z,571.53
2018-12-16T13:19:31.602Z,550.03
2018-12-16T13:22:02.690Z,586.33
2018-12-16T13:24:33.429Z,552.83
2018-12-16T13:27:03.874Z,536.20
2018-12-16T13:29:34.326Z,508.33
2018-12-16T13:32:05.057Z,530.47
2018-12-16T13:34:36.060Z,482.30
2018-12-16T13:37:06.394Z,380.90
2018-12-16T13:39:37.049Z,291.97
2018-12-16T13:42:07.348Z,287.23
2018-12-16T13:44:38.289Z,403.83
2018-12-16T13:47:08.739Z,379.73
2018-12-16T13:49:39.189Z,94.33
2018-12-16T13:52:09.442Z,10.57
2018-12-16T13:54:39.612Z,6.37
2018-12-16T13:57:10.025Z,3.80
2018-12-16T13:59:40.563Z,2.07
2018-12-16T14:02:10.896Z,2.30
2018-12-16T14:04:41.472Z,15.77
2018-12-16T14:07:11.707Z,14.90
2018-12-16T14:09:42.456Z,13.30
2018-12-16T14:12:13.048Z,9.37
2018-12-16T14:14:45.099Z,7.00
2018-12-16T14:17:15.799Z,6.03
2018-12-16T14:19:46.317Z,4.57
2018-12-16T14:22:16.891Z,4.80
2018-12-16T14:24:48.427Z,2.80
2018-12-16T14:27:19.024Z,3.60
2018-12-16T14:29:49.676Z,15.97
2018-12-16T14:32:20.324Z,5.97
2018-12-16T14:34:51.170Z,8.43
2018-12-16T14:37:20.911Z,6.67
2018-12-16T14:39:50.741Z,3.43
2018-12-16T14:42:20.445Z,3.67
2018-12-16T14:44:50.243Z,4.00
2018-12-16T14:47:19.957Z,8.50
2018-12-16T14:49:49.616Z,4.40
2018-12-16T14:52:19.328Z,7.30
2018-12-16T14:54:49.048Z,5.90
2018-12-16T14:57:18.827Z,6.67
2018-12-16T14:59:49.101Z,6.37
2018-12-16T15:02:19.265Z,7.20
2018-12-16T15:04:49.807Z,3.67
2018-12-16T15:07:19.507Z,10.00
2018-12-16T15:09:49.492Z,12.80
2018-12-16T15:12:19.378Z,2.40
2018-12-16T15:14:49.255Z,4.33
2018-12-16T15:17:19.074Z,11.47
2018-12-16T15:19:48.815Z,6.30
2018-12-16T15:22:18.971Z,3.90
2018-12-16T15:24:49.218Z,5.10
2018-12-16T15:27:19.856Z,5.50
2018-12-16T15:29:49.498Z,3.33
2018-12-16T15:32:19.216Z,5.03
2018-12-16T15:34:49.837Z,5.93
2018-12-16T15:37:20.261Z,5.90
2018-12-16T15:39:50.698Z,4.97
2018-12-16T15:42:21.043Z,4.37
2018-12-16T15:44:51.419Z,3.57
2018-12-16T15:47:20.979Z,3.30
2018-12-16T15:49:50.816Z,2.40
2018-12-16T15:52:21.020Z,5.67
2018-12-16T15:54:51.667Z,3.33
2018-12-16T15:57:21.989Z,7.03
2018-12-16T15:59:52.375Z,15.87
2018-12-16T16:02:23.298Z,6.23
2018-12-16T16:04:54.337Z,9.90
2018-12-16T16:07:24.739Z,16.33
2018-12-16T16:09:54.886Z,13.13
2018-12-16T16:12:24.550Z,13.53
2018-12-16T16:14:54.629Z,52.50
2018-12-16T16:17:24.277Z,7.03
2018-12-16T16:19:53.983Z,6.90
2018-12-16T16:22:23.675Z,6.43
2018-12-16T16:24:53.202Z,5.07
2018-12-16T16:27:23.097Z,30.93
2018-12-16T16:29:52.820Z,9.67
2018-12-16T16:32:22.372Z,11.43
2018-12-16T16:34:52.141Z,20.77
2018-12-16T16:37:21.849Z,15.40
2018-12-16T16:39:51.530Z,34.43
2018-12-16T16:42:21.184Z,19.53
2018-12-16T16:44:50.967Z,25.97
2018-12-16T16:47:20.635Z,22.13
2018-12-16T16:49:50.465Z,13.00
2018-12-16T16:52:20.278Z,18.60
2018-12-16T16:54:50.032Z,38.00
2018-12-16T16:57:19.714Z,26.90
2018-12-16T16:59:49.426Z,24.00
2018-12-16T17:02:19.153Z,9.53
2018-12-16T17:04:49.109Z,18.50
2018-12-16T17:07:19.386Z,19.17
2018-12-16T17:09:50.021Z,18.67
2018-12-16T17:12:20.721Z,16.20
2018-12-16T17:14:50.768Z,9.07
2018-12-16T17:17:20.396Z,6.83
2018-12-16T17:19:50.350Z,7.73
2018-12-16T17:22:20.468Z,5.90
2018-12-16T17:24:50.675Z,12.17
2018-12-16T17:27:20.831Z,14.53
2018-12-16T17:29:51.374Z,13.23
2018-12-16T17:32:21.569Z,11.17
2018-12-16T17:34:53.135Z,8.97
2018-12-16T17:37:23.489Z,14.40
2018-12-16T17:39:53.148Z,18.47
2018-12-16T17:42:23.401Z,21.17
2018-12-16T17:44:54.670Z,10.73
2018-12-16T17:47:25.074Z,14.47
2018-12-16T17:49:55.807Z,11.50
2018-12-16T17:52:26.549Z,17.83
2018-12-16T17:54:57.401Z,15.23
2018-12-16T17:57:27.107Z,7.80
2018-12-16T17:59:56.813Z,9.80
2018-12-16T18:02:27.431Z,7.60
2018-12-16T18:04:58.064Z,9.77
2018-12-16T18:07:28.481Z,5.20
2018-12-16T18:09:59.240Z,7.63
2018-12-16T18:12:29.501Z,6.67
2018-12-16T18:15:00.730Z,15.40
2018-12-16T18:17:30.891Z,12.50
2018-12-16T18:20:01.175Z,19.10
2018-12-16T18:22:31.448Z,19.50
2018-12-16T18:25:02.683Z,36.67
2018-12-16T18:27:32.347Z,20.60
2018-12-16T18:30:02.105Z,8.70
2018-12-16T18:32:31.841Z,17.10
2018-12-16T18:35:02.562Z,33.93
2018-12-16T18:37:33.102Z,45.80
2018-12-16T18:40:02.887Z,61.77
2018-12-16T18:42:32.719Z,69.97
2018-12-16T18:45:03.469Z,85.50
2018-12-16T18:47:33.650Z,48.13
2018-12-16T18:50:04.317Z,16.10
2018-12-16T18:52:34.477Z,29.60
2018-12-16T18:55:05.851Z,44.10
2018-12-16T18:57:36.542Z,39.30
2018-12-16T19:00:10.605Z,37.23
2018-12-16T19:02:40.910Z,31.30
2018-12-16T19:05:11.461Z,47.63
2018-12-16T19:07:41.781Z,37.73
2018-12-16T19:10:12.423Z,62.80
2018-12-16T19:12:42.353Z,59.37
2018-12-16T19:15:12.701Z,48.90
2018-12-16T19:17:42.466Z,53.63
2018-12-16T19:20:12.264Z,33.73
2018-12-16T19:22:42.048Z,23.27
2018-12-16T19:25:11.951Z,34.60
2018-12-16T19:27:41.690Z,38.97
2018-12-16T19:30:11.665Z,16.50
2018-12-16T19:32:41.290Z,16.07
2018-12-16T19:35:10.987Z,11.00
2018-12-16T19:37:41.520Z,21.30
2018-12-16T19:40:12.117Z,12.90
2018-12-16T19:42:42.824Z,39.87
2018-12-16T19:45:13.634Z,55.40
2018-12-16T19:47:49.435Z,39.07
2018-12-16T19:50:15.135Z,30.63
2018-12-16T19:52:44.936Z,15.07
2018-12-16T19:55:15.838Z,8.23
2018-12-16T19:57:45.591Z,8.27
2018-12-16T20:00:15.927Z,6.07
2018-12-16T20:02:46.040Z,8.13
2018-12-16T20:05:23.770Z,7.10
2018-12-16T20:07:54.225Z,8.30
2018-12-16T20:10:24.961Z,8.27
2018-12-16T20:12:55.831Z,8.73
2018-12-16T20:15:26.512Z,9.00
2018-12-16T20:17:56.866Z,6.73
2018-12-16T20:20:27.430Z,14.20
2018-12-16T20:22:57.917Z,8.13
2018-12-16T20:25:28.751Z,14.30
2018-12-16T20:27:59.103Z,19.07
2018-12-16T20:30:29.629Z,18.53
2018-12-16T20:32:59.855Z,28.00
2018-12-16T20:35:30.531Z,26.00
2018-12-16T20:38:01.477Z,19.93
2018-12-16T20:40:32.313Z,10.27
2018-12-16T20:43:02.904Z,16.27
2018-12-16T20:45:33.722Z,26.27
2018-12-16T20:48:03.792Z,19.47
2018-12-16T20:50:33.940Z,19.50
2018-12-16T20:53:04.607Z,12.07
2018-12-16T20:55:35.372Z,9.13
2018-12-16T20:58:05.787Z,9.53
2018-12-16T21:00:36.176Z,7.23
2018-12-16T21:03:06.800Z,5.93
2018-12-16T21:05:38.329Z,6.40
2018-12-16T21:08:08.274Z,5.40
2018-12-16T21:10:38.088Z,6.87
2018-12-16T21:13:13.448Z,6.07
2018-12-16T21:15:49.631Z,4.20
2018-12-16T21:18:25.340Z,5.23
2018-12-16T21:20:55.622Z,3.77
2018-12-16T21:23:26.059Z,3.70
2018-12-16T21:25:57.340Z,8.37
2018-12-16T21:28:27.746Z,5.40
2018-12-16T21:30:58.494Z,5.60
2018-12-16T21:33:27.916Z,11.00
2018-12-16T21:35:59.140Z,7.10
2018-12-16T21:38:29.632Z,6.50
2018-12-16T21:41:00.195Z,6.73
2018-12-16T21:43:30.828Z,6.57
2018-12-16T21:46:01.306Z,5.40
2018-12-16T21:48:31.851Z,6.20
2018-12-16T21:51:02.535Z,6.00
2018-12-16T21:53:32.931Z,8.20
2018-12-16T21:56:03.386Z,6.23
2018-12-16T21:58:33.980Z,5.10
2018-12-16T22:01:04.449Z,6.50
2018-12-16T22:03:35.125Z,4.17
2018-12-16T22:06:05.986Z,6.07
2018-12-16T22:08:36.612Z,3.30
2018-12-16T22:11:06.263Z,4.07
2018-12-16T22:13:36.307Z,9.77
2018-12-16T22:16:07.189Z,5.33
2018-12-16T22:18:37.766Z,4.57
2018-12-16T22:21:08.143Z,5.20
2018-12-16T22:23:38.454Z,4.93
2018-12-16T22:26:10.127Z,5.73
2018-12-16T22:28:40.511Z,7.70
2018-12-16T22:31:11.222Z,3.83
2018-12-16T22:33:40.757Z,3.43
2018-12-16T22:36:11.465Z,5.40
2018-12-16T22:38:41.579Z,5.50
2018-12-16T22:41:12.059Z,5.63
2018-12-16T22:43:42.592Z,7.23
2018-12-16T22:46:13.193Z,5.67
2018-12-16T22:48:43.707Z,3.87
2018-12-16T22:51:14.334Z,3.37
2018-12-16T22:53:44.791Z,4.10
2018-12-16T22:56:15.737Z,3.93
2018-12-16T22:58:45.496Z,3.30
2018-12-16T23:01:18.324Z,9.93
2018-12-16T23:03:48.852Z,4.93
2018-12-16T23:06:19.578Z,7.13
2018-12-16T23:08:49.974Z,3.77
2018-12-16T23:11:20.662Z,4.63
2018-12-16T23:13:51.482Z,7.03
2018-12-16T23:16:21.963Z,13.40
2018-12-16T23:18:52.215Z,9.40
2018-12-16T23:21:22.751Z,14.00
2018-12-16T23:23:53.313Z,11.00
2018-12-16T23:26:24.015Z,6.80
2018-12-16T23:28:54.340Z,9.90
2018-12-16T23:31:24.824Z,8.37
2018-12-16T23:33:55.328Z,12.67
2018-12-16T23:36:26.144Z,7.10
2018-12-16T23:38:56.896Z,5.57
2018-12-16T23:41:27.327Z,7.33
2018-12-16T23:43:58.040Z,11.93
2018-12-16T23:46:28.876Z,9.60
2018-12-16T23:48:59.393Z,22.50
2018-12-16T23:51:29.963Z,11.77
2018-12-16T23:54:00.415Z,8.10
2018-12-16T23:56:31.372Z,7.73
2018-12-16T23:59:01.806Z,8.50
